Terminal Aerodrome Forecast
Issued by NWS Wilmington, OH

Current Version | Previous Version | Graphics & Text | Print | Product List | Glossary On
Versions: 1 2 3 4 5 6 7 8 9 10 11 12 13 14 15 16 17
000
FTUS41 KILN 010500 RRA
TAFCMH
TAF
KCMH 010544Z 0106/0206 22005KT 6SM BR FEW040 SCT250
     FM010800 26005KT 4SM BR FEW040 SCT250
     FM011200 33005KT P6SM FEW040 SCT250
     FM011500 32007KT P6SM SCT040
     FM020000 35004KT P6SM SCT050=

USA.gov is the U.S. government's official web portal to all federal, state and local government web resources and services.